Time;durP1;ratioP1;P1;durP2;ratioP2;P2;SDS_P1;SDS_P2;PMS_P1;PMS_P2;Temp;Humidity;BMP_temperature;BMP_pressure;BME280_temperature;BME280_humidity;BME280_pressure;Samples;Min_cycle;Max_cycle;Signal;HPM_P1;HPM_P2
2023/05/22 00:02:06;;;;;;;12.02;9.55;;;16.10;86.40;;;;;;6251770;22;20028;-83
2023/05/22 00:04:32;;;;;;;12.35;9.77;;;16.10;86.90;;;;;;6251521;22;20000;-83
2023/05/22 00:06:58;;;;;;;12.30;9.88;;;16.10;86.60;;;;;;6251648;22;20000;-83
2023/05/22 00:09:25;;;;;;;11.52;9.48;;;16.10;86.30;;;;;;6251441;22;20000;-83
2023/05/22 00:11:51;;;;;;;11.23;9.15;;;16.00;85.70;;;;;;6278690;22;20067;-82
2023/05/22 00:14:17;;;;;;;10.82;9.20;;;16.10;86.00;;;;;;6278720;22;20083;-83
2023/05/22 00:16:42;;;;;;;11.27;9.65;;;16.10;85.80;;;;;;6251472;22;20035;-82
2023/05/22 00:19:12;;;;;;;10.50;9.02;;;16.10;86.10;;;;;;6279059;22;20004;-83
2023/05/22 00:21:38;;;;;;;10.82;8.93;;;16.10;86.10;;;;;;6278141;22;20069;-83
2023/05/22 00:24:04;;;;;;;12.00;9.88;;;16.10;86.30;;;;;;6251371;22;20054;-83
2023/05/22 00:26:30;;;;;;;11.70;9.88;;;16.10;86.40;;;;;;6251479;22;20345;-83
2023/05/22 00:28:55;;;;;;;11.55;9.65;;;16.10;86.70;;;;;;6251806;22;20049;-83
2023/05/22 00:31:21;;;;;;;11.48;9.75;;;16.10;86.40;;;;;;6251389;22;20480;-83
2023/05/22 00:33:46;;;;;;;11.35;9.45;;;16.10;86.30;;;;;;6251405;22;20027;-80
2023/05/22 00:36:12;;;;;;;11.95;9.70;;;16.10;86.20;;;;;;6278539;22;20345;-83
2023/05/22 00:38:37;;;;;;;10.82;9.50;;;16.10;86.10;;;;;;6251774;22;20311;-83
2023/05/22 00:41:04;;;;;;;11.60;10.02;;;16.10;86.30;;;;;;6278552;22;20000;-83
2023/05/22 00:43:30;;;;;;;12.05;10.30;;;16.10;87.40;;;;;;6278064;22;20054;-83
2023/05/22 00:45:56;;;;;;;12.40;10.32;;;16.10;87.00;;;;;;6278359;22;20004;-83
2023/05/22 00:48:22;;;;;;;14.20;11.05;;;16.10;86.90;;;;;;6250888;22;20015;-82
2023/05/22 00:50:52;;;;;;;15.20;12.32;;;16.10;87.90;;;;;;6250393;22;20004;-83
2023/05/22 00:53:20;;;;;;;13.70;11.25;;;16.10;90.20;;;;;;6277851;22;19992;-83
2023/05/22 00:55:46;;;;;;;14.35;12.10;;;16.10;89.70;;;;;;6277548;22;20041;-82
2023/05/22 00:58:15;;;;;;;13.68;11.85;;;16.10;90.00;;;;;;6277784;22;20012;-83
2023/05/22 01:00:41;;;;;;;13.52;11.32;;;16.00;89.50;;;;;;6250929;22;20453;-83
2023/05/22 01:03:08;;;;;;;14.50;11.73;;;16.10;90.60;;;;;;6251006;22;20058;-82
2023/05/22 01:05:35;;;;;;;13.25;10.50;;;16.00;90.60;;;;;;6277843;22;20035;-82
2023/05/22 01:08:00;;;;;;;11.85;9.95;;;16.10;90.20;;;;;;6251053;22;20082;-83
2023/05/22 01:10:27;;;;;;;12.45;9.95;;;16.10;89.70;;;;;;6250250;22;20066;-82
2023/05/22 01:13:21;;;;;;;11.85;10.15;;;16.20;88.40;;;;;;6278180;22;20004;-83
2023/05/22 01:16:00;;;;;;;11.35;9.60;;;16.10;87.60;;;;;;6278044;22;20318;-83
2023/05/22 01:19:19;;;;;;;12.40;10.27;;;16.10;87.20;;;;;;6278193;22;19996;-83
2023/05/22 01:22:06;;;;;;;12.05;9.50;;;16.20;86.90;;;;;;6100046;23;20430;-82
2023/05/22 01:24:43;;;;;;;13.73;10.13;;;16.20;86.70;;;;;;6277642;22;20062;-83
2023/05/22 01:27:24;;;;;;;12.18;9.95;;;16.20;86.70;;;;;;6251248;22;20008;-82
2023/05/22 01:30:25;;;;;;;11.65;9.70;;;16.20;86.60;;;;;;6251197;22;20081;-82
2023/05/22 01:32:55;;;;;;;12.00;9.77;;;16.20;86.50;;;;;;6251054;22;20453;-82
2023/05/22 01:35:21;;;;;;;12.93;10.05;;;16.20;86.50;;;;;;6250421;22;20319;-83
2023/05/22 01:37:47;;;;;;;12.80;10.13;;;16.20;86.50;;;;;;6278260;22;20027;-82
2023/05/22 01:40:13;;;;;;;11.70;10.50;;;16.20;86.70;;;;;;6251031;22;20015;-83
2023/05/22 01:42:40;;;;;;;13.07;10.55;;;16.20;87.20;;;;;;6278084;22;20315;-83
2023/05/22 01:45:08;;;;;;;12.55;10.25;;;16.10;87.40;;;;;;6250819;22;20065;-83
2023/05/22 01:47:34;;;;;;;11.85;10.30;;;16.10;87.40;;;;;;6277963;22;20062;-82
2023/05/22 01:50:00;;;;;;;12.20;10.18;;;16.10;87.60;;;;;;6277850;22;19999;-83
2023/05/22 01:52:55;;;;;;;11.82;9.98;;;16.10;87.60;;;;;;6250768;22;20004;-83
2023/05/22 01:55:34;;;;;;;12.93;10.88;;;16.10;87.60;;;;;;6250330;22;20445;-83
2023/05/22 01:58:23;;;;;;;12.48;10.07;;;16.10;87.60;;;;;;6250978;22;20012;-83
2023/05/22 02:00:52;;;;;;;12.45;9.68;;;16.10;87.20;;;;;;6251105;22;20092;-83
2023/05/22 02:03:21;;;;;;;11.95;10.00;;;16.10;86.90;;;;;;6250697;22;20453;-83
2023/05/22 02:05:52;;;;;;;12.27;10.07;;;16.10;86.80;;;;;;6250346;22;20003;-82
2023/05/22 02:08:19;;;;;;;12.63;10.10;;;16.10;87.10;;;;;;6250683;22;20380;-83
2023/05/22 02:10:46;;;;;;;11.95;10.25;;;16.10;87.30;;;;;;6277272;22;20429;-80
2023/05/22 02:13:12;;;;;;;12.98;10.30;;;16.00;87.10;;;;;;6276730;22;19992;-82
2023/05/22 02:15:37;;;;;;;12.70;10.35;;;16.10;87.40;;;;;;6249425;22;19996;-83
2023/05/22 02:18:10;;;;;;;11.40;9.35;;;16.10;87.20;;;;;;6249711;22;20336;-82
2023/05/22 02:20:35;;;;;;;12.50;10.00;;;16.10;86.90;;;;;;6276584;22;20030;-83
2023/05/22 02:23:01;;;;;;;13.30;10.05;;;16.10;87.10;;;;;;6250159;22;20007;-82
2023/05/22 02:25:26;;;;;;;11.95;10.32;;;16.00;87.00;;;;;;6250005;22;20006;-83
2023/05/22 02:27:52;;;;;;;12.10;10.13;;;16.10;87.30;;;;;;6250178;22;20015;-82
2023/05/22 02:30:48;;;;;;;12.48;10.15;;;16.10;87.80;;;;;;6249899;22;20007;-83
2023/05/22 02:33:16;;;;;;;11.48;10.07;;;16.10;87.10;;;;;;6275080;22;20075;-82
2023/05/22 02:35:42;;;;;;;11.52;9.85;;;16.10;86.90;;;;;;6277167;22;20049;-83
2023/05/22 02:38:08;;;;;;;11.85;9.23;;;16.10;87.30;;;;;;6250242;22;20000;-82
2023/05/22 02:40:33;;;;;;;11.73;9.88;;;16.10;87.30;;;;;;6250162;22;20004;-83
2023/05/22 02:42:59;;;;;;;11.65;9.77;;;16.10;87.30;;;;;;6250314;22;20057;-83
2023/05/22 02:45:24;;;;;;;12.25;9.90;;;16.10;87.20;;;;;;6249988;22;20004;-83
2023/05/22 02:47:50;;;;;;;13.35;10.32;;;16.10;87.00;;;;;;6277349;22;20345;-82
2023/05/22 02:50:15;;;;;;;11.10;9.18;;;16.10;87.20;;;;;;6249917;22;20004;-83
2023/05/22 02:52:41;;;;;;;11.77;9.82;;;16.10;87.20;;;;;;6250212;22;20437;-83
2023/05/22 02:55:07;;;;;;;13.35;10.93;;;16.10;87.20;;;;;;6249833;22;19995;-82
2023/05/22 02:57:33;;;;;;;11.30;9.65;;;16.10;87.30;;;;;;6249923;22;20079;-83
2023/05/22 02:59:58;;;;;;;11.10;9.55;;;16.10;87.30;;;;;;6250106;22;20034;-83
2023/05/22 03:02:27;;;;;;;11.95;10.32;;;16.10;87.10;;;;;;6277258;22;20000;-81
2023/05/22 03:04:52;;;;;;;11.77;10.10;;;16.10;86.90;;;;;;6249642;22;20087;-83
2023/05/22 03:07:20;;;;;;;11.25;9.55;;;16.20;86.80;;;;;;6277089;22;20046;-83
2023/05/22 03:09:45;;;;;;;11.48;9.30;;;16.20;86.70;;;;;;6251249;22;20438;-83
2023/05/22 03:12:11;;;;;;;11.93;9.65;;;16.20;86.40;;;;;;6249787;22;20080;-82
2023/05/22 03:14:36;;;;;;;11.82;10.10;;;16.20;86.30;;;;;;6276862;22;20310;-83
2023/05/22 03:17:02;;;;;;;11.77;9.55;;;16.20;86.20;;;;;;6249981;22;20000;-83
2023/05/22 03:19:28;;;;;;;11.25;9.32;;;16.20;86.10;;;;;;6249913;22;20428;-83
2023/05/22 03:21:53;;;;;;;10.85;9.63;;;16.20;86.00;;;;;;6249353;22;20003;-83
2023/05/22 03:24:19;;;;;;;11.65;8.88;;;16.20;86.00;;;;;;6249413;22;20082;-83
2023/05/22 03:26:45;;;;;;;11.70;9.43;;;16.20;86.10;;;;;;6249698;22;20426;-82
2023/05/22 03:29:10;;;;;;;11.82;9.70;;;16.20;86.20;;;;;;6276361;22;20047;-85
2023/05/22 03:31:36;;;;;;;11.00;9.30;;;16.20;86.40;;;;;;6245406;22;20010;-87
2023/05/22 03:34:04;;;;;;;11.32;9.57;;;16.10;86.50;;;;;;6275928;22;20067;-85
2023/05/22 03:36:32;;;;;;;11.45;9.57;;;16.20;86.70;;;;;;6249275;22;20008;-87
2023/05/22 03:38:58;;;;;;;11.50;9.05;;;16.10;86.60;;;;;;6250466;22;20006;-86
2023/05/22 03:41:24;;;;;;;11.15;9.57;;;16.10;86.60;;;;;;6276499;22;20000;-86
2023/05/22 03:43:49;;;;;;;11.93;9.57;;;16.10;86.70;;;;;;6248112;22;20022;-85
2023/05/22 03:46:15;;;;;;;11.27;9.50;;;16.10;86.70;;;;;;6248842;22;20091;-86
2023/05/22 03:48:40;;;;;;;10.48;8.82;;;16.10;86.70;;;;;;6248271;22;20077;-84
2023/05/22 03:51:06;;;;;;;10.25;9.15;;;16.10;86.70;;;;;;6247875;22;20015;-86
2023/05/22 03:53:31;;;;;;;12.13;10.25;;;16.10;86.60;;;;;;6246922;22;20509;-86
2023/05/22 03:55:58;;;;;;;11.75;9.55;;;16.10;86.70;;;;;;6247194;22;20000;-85
2023/05/22 03:58:26;;;;;;;10.95;9.10;;;16.10;86.70;;;;;;6246318;22;20014;-86
2023/05/22 04:00:53;;;;;;;10.75;8.88;;;16.10;86.70;;;;;;6274542;22;20014;-87
2023/05/22 04:03:18;;;;;;;12.27;9.88;;;16.10;86.70;;;;;;6247045;22;20012;-83
2023/05/22 04:05:45;;;;;;;11.57;9.48;;;16.10;86.80;;;;;;6247437;22;20042;-87
2023/05/22 04:08:10;;;;;;;11.73;9.82;;;16.10;86.80;;;;;;6246961;22;20016;-86
2023/05/22 04:10:37;;;;;;;12.63;9.35;;;16.10;86.90;;;;;;6248068;22;20014;-82
2023/05/22 04:13:03;;;;;;;13.32;10.10;;;16.10;87.10;;;;;;6245455;22;20004;-82
2023/05/22 04:15:32;;;;;;;11.93;9.50;;;16.10;87.00;;;;;;6245073;22;20080;-82
2023/05/22 04:17:59;;;;;;;13.40;9.73;;;16.10;86.80;;;;;;6245655;22;20063;-81
2023/05/22 04:20:25;;;;;;;12.40;9.73;;;16.10;86.90;;;;;;6245004;22;20084;-78
2023/05/22 04:22:50;;;;;;;12.32;9.13;;;16.10;86.90;;;;;;6244637;22;20345;-78
2023/05/22 04:25:16;;;;;;;13.27;9.55;;;16.10;86.80;;;;;;6245309;22;20006;-82
2023/05/22 04:27:41;;;;;;;12.38;9.95;;;16.00;86.80;;;;;;6245168;22;20661;-84
2023/05/22 04:30:09;;;;;;;12.75;9.40;;;16.10;86.80;;;;;;6272812;22;20030;-83
2023/05/22 04:32:35;;;;;;;11.52;9.75;;;16.10;86.70;;;;;;6244940;22;20004;-84
2023/05/22 04:35:01;;;;;;;12.70;9.30;;;16.10;86.60;;;;;;6244831;22;20008;-82
2023/05/22 04:37:27;;;;;;;11.85;9.13;;;16.10;87.00;;;;;;6245483;22;20087;-84
2023/05/22 04:39:57;;;;;;;11.48;8.50;;;16.10;86.60;;;;;;6245596;22;20000;-82
2023/05/22 04:42:24;;;;;;;11.30;9.23;;;16.10;86.60;;;;;;6245350;22;19999;-84
2023/05/22 04:44:51;;;;;;;12.63;9.45;;;16.10;86.30;;;;;;6245948;22;20004;-84
2023/05/22 04:47:18;;;;;;;12.90;9.32;;;16.10;86.20;;;;;;6273588;22;20013;-83
2023/05/22 04:49:44;;;;;;;11.32;9.32;;;16.10;86.30;;;;;;6274421;22;20000;-81
2023/05/22 04:52:10;;;;;;;10.48;8.90;;;16.20;86.20;;;;;;6246974;22;20061;-83
2023/05/22 04:54:36;;;;;;;11.00;9.00;;;16.20;86.00;;;;;;6247183;22;20037;-84
2023/05/22 04:57:03;;;;;;;10.30;8.55;;;16.20;85.90;;;;;;6246549;22;20022;-83
2023/05/22 04:59:36;;;;;;;13.10;9.02;;;16.20;85.80;;;;;;6274323;22;20071;-83
2023/05/22 05:02:03;;;;;;;11.15;8.98;;;16.20;85.70;;;;;;6246879;22;20091;-83
2023/05/22 05:04:29;;;;;;;11.45;9.45;;;16.20;85.60;;;;;;6246448;22;20004;-83
2023/05/22 05:06:56;;;;;;;10.70;8.85;;;16.20;85.60;;;;;;6247281;22;20007;-82
2023/05/22 05:09:22;;;;;;;12.05;9.30;;;16.20;85.50;;;;;;6247612;22;20014;-84
2023/05/22 05:11:49;;;;;;;11.23;8.65;;;16.20;85.50;;;;;;6246899;22;20030;-82
2023/05/22 05:14:15;;;;;;;10.95;8.85;;;16.20;85.50;;;;;;6246834;22;20011;-83
2023/05/22 05:16:40;;;;;;;10.43;8.52;;;16.20;85.60;;;;;;6246867;22;20000;-83
2023/05/22 05:19:06;;;;;;;11.10;8.57;;;16.20;85.60;;;;;;6246770;22;20434;-84
2023/05/22 05:21:31;;;;;;;10.98;8.80;;;16.20;85.70;;;;;;6247109;22;20014;-82
2023/05/22 05:23:57;;;;;;;9.45;8.25;;;16.20;85.80;;;;;;6247127;22;20451;-82
2023/05/22 05:26:22;;;;;;;11.02;8.32;;;16.20;85.90;;;;;;6273666;22;20006;-81
2023/05/22 05:28:52;;;;;;;11.15;9.32;;;16.20;86.00;;;;;;6246703;22;20008;-83
2023/05/22 05:31:21;;;;;;;10.98;8.77;;;16.20;85.90;;;;;;6246852;22;20018;-84
2023/05/22 05:33:47;;;;;;;12.38;8.98;;;16.10;85.90;;;;;;6246640;22;20003;-83
2023/05/22 05:36:13;;;;;;;11.65;9.40;;;16.20;86.00;;;;;;6246660;22;19999;-83
2023/05/22 05:38:39;;;;;;;10.48;8.60;;;16.10;85.90;;;;;;6246513;22;20082;-82
2023/05/22 05:41:04;;;;;;;11.05;8.88;;;16.10;85.90;;;;;;6246873;22;20007;-83
2023/05/22 05:43:30;;;;;;;11.13;8.90;;;16.10;85.90;;;;;;6246799;22;20791;-83
2023/05/22 05:45:56;;;;;;;10.65;9.18;;;16.10;85.90;;;;;;6274052;22;20434;-83
2023/05/22 05:48:21;;;;;;;12.32;8.63;;;16.10;85.90;;;;;;6246780;22;20007;-82
2023/05/22 05:50:47;;;;;;;10.60;8.77;;;16.10;85.90;;;;;;6246626;22;20150;-83
2023/05/22 05:53:13;;;;;;;10.57;8.55;;;16.10;86.00;;;;;;6246804;22;20003;-83
2023/05/22 05:55:38;;;;;;;11.27;9.02;;;16.10;86.00;;;;;;6246083;22;20003;-85
2023/05/22 05:58:04;;;;;;;11.65;8.75;;;16.10;86.00;;;;;;6246926;22;20584;-84
2023/05/22 06:00:29;;;;;;;10.40;8.55;;;16.10;86.00;;;;;;6246731;22;20003;-84
2023/05/22 06:02:55;;;;;;;10.82;8.43;;;16.10;86.00;;;;;;6246789;22;20584;-83
2023/05/22 06:05:21;;;;;;;11.40;9.02;;;16.10;86.60;;;;;;6246590;22;20014;-82
2023/05/22 06:07:47;;;;;;;10.02;8.63;;;16.10;86.60;;;;;;6246876;22;20004;-83
2023/05/22 06:10:13;;;;;;;9.90;8.27;;;16.10;86.00;;;;;;6246252;22;20056;-83
2023/05/22 06:12:39;;;;;;;11.63;9.18;;;16.10;86.00;;;;;;6273469;22;20014;-83
2023/05/22 06:15:06;;;;;;;10.07;8.75;;;16.10;85.90;;;;;;6246316;22;20031;-83
2023/05/22 06:17:32;;;;;;;9.98;8.57;;;16.10;85.90;;;;;;6246660;22;20074;-84
2023/05/22 06:19:57;;;;;;;11.50;8.73;;;16.10;85.90;;;;;;6246435;22;20126;-83
2023/05/22 06:22:25;;;;;;;10.80;9.25;;;16.10;85.90;;;;;;6246546;22;20078;-84
2023/05/22 06:24:53;;;;;;;10.15;8.32;;;16.20;85.90;;;;;;6273277;22;20000;-83
2023/05/22 06:27:23;;;;;;;9.90;8.30;;;16.10;85.90;;;;;;6246316;22;20007;-82
2023/05/22 06:29:49;;;;;;;9.90;8.52;;;16.10;85.80;;;;;;6273585;22;20034;-82
2023/05/22 06:32:15;;;;;;;11.68;8.80;;;16.20;86.30;;;;;;6246493;22;20003;-83
2023/05/22 06:34:43;;;;;;;10.43;8.63;;;16.20;85.60;;;;;;6245840;22;20004;-82
2023/05/22 06:37:09;;;;;;;9.73;8.13;;;16.20;85.50;;;;;;6273666;22;20333;-84
2023/05/22 06:39:34;;;;;;;9.73;8.23;;;16.20;85.40;;;;;;6273196;22;20007;-84
2023/05/22 06:42:00;;;;;;;10.02;8.27;;;16.20;85.30;;;;;;6246677;22;20014;-82
2023/05/22 06:44:26;;;;;;;10.80;8.27;;;16.30;85.20;;;;;;6245336;22;20011;-81
2023/05/22 06:46:51;;;;;;;10.30;8.13;;;16.30;85.10;;;;;;6247009;22;20018;-83
2023/05/22 06:49:17;;;;;;;10.48;8.55;;;16.30;85.00;;;;;;6246541;22;20004;-82
2023/05/22 06:51:47;;;;;;;9.93;8.63;;;16.40;85.00;;;;;;6273090;22;20070;-83
2023/05/22 06:54:19;;;;;;;9.30;7.68;;;16.50;85.10;;;;;;6246090;22;20311;-83
2023/05/22 06:56:48;;;;;;;9.98;8.20;;;16.40;85.00;;;;;;6245626;22;20043;-83
2023/05/22 06:59:23;;;;;;;9.77;8.07;;;16.40;85.00;;;;;;6246399;22;20469;-82
2023/05/22 07:01:51;;;;;;;9.85;8.23;;;16.40;85.00;;;;;;6246141;22;20357;-83
2023/05/22 07:04:17;;;;;;;10.05;8.27;;;16.30;85.10;;;;;;6272840;22;20384;-83
2023/05/22 07:06:42;;;;;;;10.40;8.27;;;16.40;85.30;;;;;;6245301;22;20007;-81
2023/05/22 07:09:13;;;;;;;9.60;8.10;;;16.30;85.30;;;;;;6272552;22;20004;-83
2023/05/22 07:11:39;;;;;;;9.85;8.30;;;16.30;85.30;;;;;;6272472;22;20315;-83
2023/05/22 07:14:12;;;;;;;10.00;8.32;;;16.40;85.50;;;;;;6272785;22;20063;-84
2023/05/22 07:16:39;;;;;;;11.18;8.35;;;16.40;85.50;;;;;;6273036;22;20444;-81
2023/05/22 07:19:05;;;;;;;10.25;8.10;;;16.20;85.50;;;;;;6274999;22;19999;-83
2023/05/22 07:21:31;;;;;;;10.90;8.93;;;16.30;85.60;;;;;;6250007;22;20000;-83
2023/05/22 07:23:57;;;;;;;11.30;8.80;;;16.20;85.50;;;;;;6250064;22;20008;-84
2023/05/22 07:26:22;;;;;;;10.77;8.70;;;16.20;85.80;;;;;;6249949;22;20000;-84
2023/05/22 07:28:48;;;;;;;11.80;8.73;;;16.20;85.80;;;;;;6276906;22;20006;-84
2023/05/22 07:31:14;;;;;;;10.35;8.18;;;16.20;85.80;;;;;;6276820;22;20003;-84
2023/05/22 07:33:39;;;;;;;10.80;8.70;;;16.20;85.70;;;;;;6249469;22;20057;-84
2023/05/22 07:36:05;;;;;;;9.70;8.25;;;16.20;85.70;;;;;;6250082;22;20003;-84
2023/05/22 07:38:30;;;;;;;11.45;8.57;;;16.20;85.70;;;;;;6276992;22;20011;-84
2023/05/22 07:40:56;;;;;;;11.20;8.60;;;16.20;85.60;;;;;;6277073;22;20039;-85
2023/05/22 07:43:21;;;;;;;9.65;8.30;;;16.20;85.60;;;;;;6250064;22;20007;-85
2023/05/22 07:45:47;;;;;;;10.38;8.75;;;16.20;85.70;;;;;;6277178;22;20007;-82
2023/05/22 07:48:12;;;;;;;9.95;8.02;;;16.20;85.70;;;;;;6276634;22;20027;-84
2023/05/22 07:50:38;;;;;;;9.93;8.30;;;16.20;85.60;;;;;;6249512;22;20027;-85
2023/05/22 07:53:05;;;;;;;10.52;8.75;;;16.20;85.60;;;;;;6249513;22;19999;-85
2023/05/22 07:55:30;;;;;;;11.07;8.40;;;16.20;85.60;;;;;;6249371;22;20039;-85
2023/05/22 07:57:56;;;;;;;10.07;8.02;;;16.20;85.60;;;;;;6249589;22;20442;-85
2023/05/22 08:00:21;;;;;;;10.30;8.55;;;16.20;85.60;;;;;;6249880;22;20007;-84
2023/05/22 08:02:47;;;;;;;10.30;8.23;;;16.20;85.60;;;;;;6277037;22;20499;-84
2023/05/22 08:05:13;;;;;;;10.38;8.25;;;16.20;85.50;;;;;;6249634;22;20075;-84
2023/05/22 08:07:38;;;;;;;10.38;8.00;;;16.20;85.50;;;;;;6250330;22;20019;-84
2023/05/22 08:10:11;;;;;;;11.48;8.20;;;16.20;85.40;;;;;;6250162;22;20004;-84
2023/05/22 08:12:37;;;;;;;10.32;7.97;;;16.20;85.40;;;;;;6249908;22;20031;-84
2023/05/22 08:15:03;;;;;;;9.30;7.85;;;16.20;85.30;;;;;;6249972;22;19995;-84
2023/05/22 08:17:28;;;;;;;9.98;8.07;;;16.30;85.30;;;;;;6249964;22;20004;-84
2023/05/22 08:19:54;;;;;;;10.70;8.05;;;16.30;85.20;;;;;;6251226;22;20007;-84
2023/05/22 08:22:19;;;;;;;11.00;8.20;;;16.30;85.00;;;;;;6252238;22;20000;-84
2023/05/22 08:24:45;;;;;;;11.02;7.90;;;16.40;84.80;;;;;;6278620;22;19995;-84
2023/05/22 08:27:10;;;;;;;9.70;7.72;;;16.40;84.60;;;;;;6251819;22;20000;-84
2023/05/22 08:29:36;;;;;;;9.43;7.93;;;16.40;84.40;;;;;;6251754;22;20004;-84
2023/05/22 08:32:01;;;;;;;9.43;8.05;;;16.50;84.30;;;;;;6251833;22;20464;-84
2023/05/22 08:34:27;;;;;;;9.02;7.63;;;16.60;84.30;;;;;;6251385;22;20027;-84
2023/05/22 08:36:53;;;;;;;9.98;7.95;;;16.60;83.90;;;;;;6251738;22;19995;-84
2023/05/22 08:39:18;;;;;;;10.13;7.93;;;16.60;83.80;;;;;;6278868;22;20035;-84
2023/05/22 08:41:46;;;;;;;9.30;7.75;;;16.60;83.90;;;;;;6279055;22;20074;-84
2023/05/22 08:44:12;;;;;;;10.40;7.80;;;16.60;83.70;;;;;;6251138;22;20143;-84
2023/05/22 08:46:40;;;;;;;9.93;8.05;;;16.70;83.60;;;;;;6251489;22;20034;-84
2023/05/22 08:49:07;;;;;;;9.63;7.70;;;16.70;83.60;;;;;;6251662;22;20033;-85
2023/05/22 08:51:36;;;;;;;9.60;7.68;;;16.70;83.50;;;;;;6251501;22;20091;-83
2023/05/22 08:54:06;;;;;;;9.88;7.43;;;16.70;83.40;;;;;;6250952;22;20008;-84
2023/05/22 08:56:32;;;;;;;9.80;8.00;;;16.70;83.40;;;;;;6251358;22;20090;-84
2023/05/22 08:58:59;;;;;;;8.60;7.50;;;16.70;83.30;;;;;;6278835;22;20426;-84
2023/05/22 09:01:25;;;;;;;9.98;7.53;;;16.70;83.40;;;;;;6278486;22;20049;-85
2023/05/22 09:03:51;;;;;;;9.65;7.32;;;16.80;83.40;;;;;;6251264;22;20416;-84
2023/05/22 09:06:17;;;;;;;9.32;7.80;;;16.80;83.30;;;;;;6251269;22;20007;-84
2023/05/22 09:08:42;;;;;;;8.70;7.00;;;16.80;83.30;;;;;;6251254;22;20007;-83
2023/05/22 09:11:09;;;;;;;8.93;7.00;;;16.90;83.30;;;;;;6276302;22;20484;-84
2023/05/22 09:13:38;;;;;;;9.07;7.53;;;16.90;83.20;;;;;;6249722;22;20078;-83
2023/05/22 09:16:11;;;;;;;9.73;7.95;;;16.90;83.20;;;;;;6250065;22;20592;-83
2023/05/22 09:18:38;;;;;;;8.70;7.25;;;16.90;83.10;;;;;;6250175;22;20346;-83
2023/05/22 09:21:08;;;;;;;8.73;6.97;;;16.90;83.10;;;;;;6249959;22;20077;-82
2023/05/22 09:23:33;;;;;;;9.00;7.35;;;17.00;83.10;;;;;;6249708;22;20015;-83
2023/05/22 09:26:00;;;;;;;9.30;7.55;;;17.00;83.10;;;;;;6250154;22;20007;-81
2023/05/22 09:28:27;;;;;;;8.57;7.05;;;17.00;83.00;;;;;;6250246;22;20039;-82
2023/05/22 09:30:54;;;;;;;8.57;6.88;;;17.00;83.00;;;;;;6249376;22;20345;-82
2023/05/22 09:33:21;;;;;;;9.02;7.55;;;17.00;83.00;;;;;;6250064;22;20003;-80
2023/05/22 09:35:48;;;;;;;8.35;6.82;;;17.00;83.00;;;;;;6249792;22;20414;-82
2023/05/22 09:38:14;;;;;;;8.93;7.30;;;17.10;83.00;;;;;;6249960;22;20330;-82
2023/05/22 09:40:40;;;;;;;9.63;7.30;;;17.00;83.40;;;;;;6249832;22;20010;-82
2023/05/22 09:43:16;;;;;;;10.52;7.05;;;17.10;82.90;;;;;;6277014;22;20000;-82
2023/05/22 09:45:42;;;;;;;8.35;7.00;;;17.10;82.80;;;;;;6277006;22;20011;-83
2023/05/22 09:48:09;;;;;;;8.80;6.78;;;17.10;82.70;;;;;;6277270;22;20053;-82
2023/05/22 09:50:41;;;;;;;8.68;7.15;;;17.10;82.70;;;;;;6249605;22;20004;-82
2023/05/22 09:53:08;;;;;;;8.90;7.05;;;17.10;82.70;;;;;;6249807;22;20003;-82
2023/05/22 09:55:35;;;;;;;9.00;7.53;;;17.10;82.70;;;;;;6276676;22;20022;-82
2023/05/22 09:58:03;;;;;;;8.30;6.65;;;17.20;82.70;;;;;;6249952;22;20004;-83
2023/05/22 10:00:29;;;;;;;8.60;6.85;;;17.20;82.80;;;;;;6249864;22;20004;-83
2023/05/22 10:03:04;;;;;;;8.73;7.38;;;17.20;82.70;;;;;;6249579;22;20012;-82
2023/05/22 10:05:30;;;;;;;9.18;7.47;;;17.20;82.60;;;;;;6249538;22;20018;-82
2023/05/22 10:08:03;;;;;;;8.88;7.20;;;17.20;82.50;;;;;;6249639;22;20007;-82
2023/05/22 10:10:29;;;;;;;8.38;6.97;;;17.20;82.40;;;;;;6249339;22;20011;-83
2023/05/22 10:13:03;;;;;;;8.63;6.95;;;17.30;82.30;;;;;;6249688;22;20081;-82
2023/05/22 10:15:30;;;;;;;8.23;6.82;;;17.30;82.20;;;;;;6276457;22;20000;-83
2023/05/22 10:17:57;;;;;;;8.32;6.70;;;17.30;82.10;;;;;;6249595;22;20000;-83
2023/05/22 10:20:25;;;;;;;8.15;6.60;;;17.40;82.00;;;;;;6249461;22;20007;-84
2023/05/22 10:22:52;;;;;;;8.40;6.53;;;17.40;82.00;;;;;;6250099;22;20008;-83
2023/05/22 10:25:18;;;;;;;8.18;6.53;;;17.40;82.00;;;;;;6276316;22;20008;-83
2023/05/22 10:27:44;;;;;;;8.93;7.20;;;17.40;81.90;;;;;;6249442;22;20495;-82
2023/05/22 10:30:22;;;;;;;8.25;6.70;;;17.40;81.80;;;;;;6276361;22;20004;-83
2023/05/22 10:33:16;;;;;;;8.57;7.05;;;17.40;82.10;;;;;;6249502;22;20007;-82
2023/05/22 10:36:06;;;;;;;8.50;6.97;;;17.30;82.20;;;;;;6249134;22;20079;-82
2023/05/22 10:38:46;;;;;;;8.15;6.55;;;17.30;82.20;;;;;;6249516;22;19999;-83
2023/05/22 10:41:11;;;;;;;8.75;6.70;;;17.30;82.30;;;;;;6249312;22;20010;-82
2023/05/22 10:43:41;;;;;;;8.70;7.10;;;17.30;82.40;;;;;;6249077;22;20007;-82
2023/05/22 10:46:07;;;;;;;8.45;7.03;;;17.40;82.40;;;;;;6276389;22;20003;-83
2023/05/22 10:48:38;;;;;;;8.02;6.80;;;17.30;82.30;;;;;;6249481;22;20373;-82
2023/05/22 10:51:07;;;;;;;8.75;7.10;;;17.40;82.30;;;;;;6249148;22;20004;-83
2023/05/22 10:53:33;;;;;;;8.43;6.47;;;17.40;82.30;;;;;;6249039;22;20499;-83
2023/05/22 10:56:09;;;;;;;8.98;7.07;;;17.40;82.30;;;;;;6249243;22;19995;-82
2023/05/22 10:58:37;;;;;;;8.68;6.78;;;17.40;82.30;;;;;;6249208;22;20042;-83
2023/05/22 11:01:17;;;;;;;8.77;7.03;;;17.40;82.30;;;;;;6276316;22;20000;-82
2023/05/22 11:03:59;;;;;;;8.93;7.10;;;17.40;82.30;;;;;;6275689;22;20003;-83
2023/05/22 11:07:03;;;;;;;8.50;6.78;;;17.40;82.40;;;;;;6276068;22;20401;-83
2023/05/22 11:09:38;;;;;;;8.43;6.65;;;17.40;82.40;;;;;;6246200;22;20007;-82
2023/05/22 11:12:18;;;;;;;7.85;6.28;;;17.40;82.40;;;;;;6249064;22;20003;-83
2023/05/22 11:14:48;;;;;;;8.73;6.88;;;17.40;82.50;;;;;;6248726;22;20000;-82
2023/05/22 11:17:18;;;;;;;8.82;6.70;;;17.40;82.50;;;;;;6276171;22;20020;-84
2023/05/22 11:19:46;;;;;;;8.25;6.30;;;17.40;82.40;;;;;;6248977;22;20333;-83
2023/05/22 11:22:12;;;;;;;8.38;6.60;;;17.40;82.50;;;;;;6249008;22;20035;-83
2023/05/22 11:24:39;;;;;;;8.15;6.50;;;17.40;82.50;;;;;;6248638;22;20011;-83
2023/05/22 11:27:08;;;;;;;8.38;6.63;;;17.40;82.50;;;;;;6249012;22;20013;-81
2023/05/22 11:29:34;;;;;;;7.95;6.38;;;17.40;82.40;;;;;;6248798;22;20004;-82
2023/05/22 11:32:01;;;;;;;9.70;6.80;;;17.40;82.30;;;;;;6275884;22;20055;-82
2023/05/22 11:34:26;;;;;;;8.57;6.70;;;17.40;82.40;;;;;;6275696;22;20455;-82
2023/05/22 11:36:57;;;;;;;8.07;6.55;;;17.40;82.50;;;;;;6249042;22;20000;-82
2023/05/22 11:39:22;;;;;;;8.32;6.85;;;17.40;82.40;;;;;;6248937;22;20342;-83
2023/05/22 11:41:48;;;;;;;8.07;6.28;;;17.40;82.50;;;;;;6248922;22;20004;-82
2023/05/22 11:44:13;;;;;;;9.80;6.60;;;17.40;82.50;;;;;;6248558;22;20003;-82
2023/05/22 11:46:39;;;;;;;8.27;6.57;;;17.40;82.60;;;;;;6248833;22;20315;-82
2023/05/22 11:49:07;;;;;;;8.05;6.75;;;17.40;83.20;;;;;;6275919;22;20091;-81
2023/05/22 11:51:33;;;;;;;9.45;7.03;;;17.40;82.60;;;;;;6248676;22;20008;-82
2023/05/22 11:53:58;;;;;;;7.70;6.38;;;17.40;82.70;;;;;;6248402;22;20010;-83
2023/05/22 11:56:24;;;;;;;8.73;6.60;;;17.40;82.70;;;;;;6248848;22;20054;-82
2023/05/22 11:58:50;;;;;;;8.43;6.60;;;17.40;82.70;;;;;;6248817;22;20446;-83
2023/05/22 12:01:16;;;;;;;8.10;6.72;;;17.40;82.80;;;;;;6248656;22;20030;-82
2023/05/22 12:03:42;;;;;;;8.90;6.93;;;17.30;82.70;;;;;;6248290;22;20004;-82
2023/05/22 12:06:08;;;;;;;8.38;6.88;;;17.40;82.80;;;;;;6276060;22;20499;-82
2023/05/22 12:08:34;;;;;;;7.97;6.47;;;17.30;82.70;;;;;;6248678;22;20464;-82
2023/05/22 12:10:59;;;;;;;8.18;6.57;;;17.30;82.90;;;;;;6248305;22;20012;-83
2023/05/22 12:13:29;;;;;;;8.60;6.47;;;17.30;82.50;;;;;;6248536;22;20319;-82
2023/05/22 12:15:58;;;;;;;7.97;6.47;;;17.30;82.60;;;;;;6248769;22;20004;-83
2023/05/22 12:18:24;;;;;;;8.40;6.97;;;17.30;82.80;;;;;;6248665;22;20074;-82
2023/05/22 12:20:53;;;;;;;8.30;6.70;;;17.30;82.90;;;;;;6248668;22;20022;-83
2023/05/22 12:23:25;;;;;;;9.10;6.90;;;17.30;83.20;;;;;;6275786;22;20389;-81
2023/05/22 12:25:57;;;;;;;8.98;7.13;;;17.30;83.30;;;;;;6248669;22;20334;-82
2023/05/22 12:28:23;;;;;;;8.98;7.10;;;17.30;83.60;;;;;;6275716;22;20031;-84
2023/05/22 12:30:52;;;;;;;9.50;7.85;;;17.30;83.40;;;;;;6248294;22;20010;-83
2023/05/22 12:33:19;;;;;;;9.23;7.32;;;17.30;83.60;;;;;;6248673;22;20000;-84
2023/05/22 12:35:44;;;;;;;9.32;7.45;;;17.30;83.80;;;;;;6248521;22;20007;-83
2023/05/22 12:38:12;;;;;;;8.70;7.07;;;17.30;84.30;;;;;;6248556;22;20000;-83
2023/05/22 12:40:37;;;;;;;8.77;7.53;;;17.30;83.90;;;;;;6248584;22;20028;-82
2023/05/22 12:43:03;;;;;;;8.98;7.18;;;17.30;84.10;;;;;;6275514;22;20422;-81
2023/05/22 12:45:28;;;;;;;9.05;7.43;;;17.30;84.00;;;;;;6248388;22;20011;-82